sensor_id;sensor_type;location;lat;lon;timestamp;P1;durP1;ratioP1;P2;durP2;ratioP2
20004;SDS011;69160;45.498;-73.582;2023-07-31T00:00:37;2.70;;;1.63;;
20004;SDS011;69160;45.498;-73.582;2023-07-31T00:03:03;1.93;;;1.60;;
20004;SDS011;69160;45.498;-73.582;2023-07-31T00:05:29;2.70;;;1.40;;
20004;SDS011;69160;45.498;-73.582;2023-07-31T00:07:56;3.53;;;1.80;;
20004;SDS011;69160;45.498;-73.582;2023-07-31T00:10:22;1.97;;;1.70;;
20004;SDS011;69160;45.498;-73.582;2023-07-31T00:12:48;1.63;;;1.50;;
20004;SDS011;69160;45.498;-73.582;2023-07-31T00:15:14;2.60;;;1.53;;
20004;SDS011;69160;45.498;-73.582;2023-07-31T00:17:41;2.00;;;1.33;;
20004;SDS011;69160;45.498;-73.582;2023-07-31T00:20:07;1.67;;;1.57;;
20004;SDS011;69160;45.498;-73.582;2023-07-31T00:22:33;1.83;;;1.60;;
20004;SDS011;69160;45.498;-73.582;2023-07-31T00:25:01;1.67;;;1.50;;
20004;SDS011;69160;45.498;-73.582;2023-07-31T00:27:27;2.63;;;1.70;;
20004;SDS011;69160;45.498;-73.582;2023-07-31T00:29:53;3.13;;;1.73;;
20004;SDS011;69160;45.498;-73.582;2023-07-31T00:32:19;2.50;;;1.50;;
20004;SDS011;69160;45.498;-73.582;2023-07-31T00:34:46;2.57;;;1.80;;
20004;SDS011;69160;45.498;-73.582;2023-07-31T00:37:12;2.20;;;1.60;;
20004;SDS011;69160;45.498;-73.582;2023-07-31T00:39:38;1.93;;;1.47;;
20004;SDS011;69160;45.498;-73.582;2023-07-31T00:42:04;2.40;;;1.77;;
20004;SDS011;69160;45.498;-73.582;2023-07-31T00:44:32;1.77;;;1.43;;
20004;SDS011;69160;45.498;-73.582;2023-07-31T00:46:58;2.00;;;1.60;;
20004;SDS011;69160;45.498;-73.582;2023-07-31T00:49:25;1.80;;;1.57;;
20004;SDS011;69160;45.498;-73.582;2023-07-31T00:51:52;1.67;;;1.20;;
20004;SDS011;69160;45.498;-73.582;2023-07-31T00:54:19;1.93;;;1.57;;
20004;SDS011;69160;45.498;-73.582;2023-07-31T00:56:45;1.70;;;1.60;;
20004;SDS011;69160;45.498;-73.582;2023-07-31T00:59:13;2.33;;;1.63;;
20004;SDS011;69160;45.498;-73.582;2023-07-31T01:01:40;2.50;;;1.83;;
20004;SDS011;69160;45.498;-73.582;2023-07-31T01:04:06;1.90;;;1.60;;
20004;SDS011;69160;45.498;-73.582;2023-07-31T01:09:15;1.87;;;1.50;;
20004;SDS011;69160;45.498;-73.582;2023-07-31T01:12:01;1.63;;;1.53;;
20004;SDS011;69160;45.498;-73.582;2023-07-31T01:14:29;1.60;;;1.43;;
20004;SDS011;69160;45.498;-73.582;2023-07-31T01:16:55;1.50;;;1.40;;
20004;SDS011;69160;45.498;-73.582;2023-07-31T01:19:22;2.27;;;1.90;;
20004;SDS011;69160;45.498;-73.582;2023-07-31T01:21:56;2.37;;;1.37;;
20004;SDS011;69160;45.498;-73.582;2023-07-31T01:27:38;1.70;;;1.30;;
20004;SDS011;69160;45.498;-73.582;2023-07-31T01:30:27;2.50;;;1.63;;
20004;SDS011;69160;45.498;-73.582;2023-07-31T01:33:02;4.13;;;1.60;;
20004;SDS011;69160;45.498;-73.582;2023-07-31T01:35:33;1.90;;;1.60;;
20004;SDS011;69160;45.498;-73.582;2023-07-31T01:38:00;1.93;;;1.40;;
20004;SDS011;69160;45.498;-73.582;2023-07-31T01:40:26;2.30;;;1.73;;
20004;SDS011;69160;45.498;-73.582;2023-07-31T01:42:52;2.83;;;1.70;;
20004;SDS011;69160;45.498;-73.582;2023-07-31T01:45:18;2.03;;;1.50;;
20004;SDS011;69160;45.498;-73.582;2023-07-31T01:47:45;1.60;;;1.50;;
20004;SDS011;69160;45.498;-73.582;2023-07-31T01:50:11;1.90;;;1.70;;
20004;SDS011;69160;45.498;-73.582;2023-07-31T01:52:37;2.27;;;1.80;;
20004;SDS011;69160;45.498;-73.582;2023-07-31T01:55:03;2.03;;;1.60;;
20004;SDS011;69160;45.498;-73.582;2023-07-31T01:57:30;2.13;;;1.37;;
20004;SDS011;69160;45.498;-73.582;2023-07-31T01:59:56;1.50;;;1.30;;
20004;SDS011;69160;45.498;-73.582;2023-07-31T02:02:22;2.03;;;1.57;;
20004;SDS011;69160;45.498;-73.582;2023-07-31T02:04:48;2.63;;;2.00;;
20004;SDS011;69160;45.498;-73.582;2023-07-31T02:07:14;2.23;;;1.60;;
20004;SDS011;69160;45.498;-73.582;2023-07-31T02:09:40;1.70;;;1.60;;
20004;SDS011;69160;45.498;-73.582;2023-07-31T02:12:07;2.30;;;1.70;;
20004;SDS011;69160;45.498;-73.582;2023-07-31T02:14:34;2.57;;;1.53;;
20004;SDS011;69160;45.498;-73.582;2023-07-31T02:17:00;1.93;;;1.73;;
20004;SDS011;69160;45.498;-73.582;2023-07-31T02:19:26;1.63;;;1.53;;
20004;SDS011;69160;45.498;-73.582;2023-07-31T02:21:52;3.23;;;1.87;;
20004;SDS011;69160;45.498;-73.582;2023-07-31T02:24:18;2.40;;;1.53;;
20004;SDS011;69160;45.498;-73.582;2023-07-31T02:26:44;1.37;;;1.27;;
20004;SDS011;69160;45.498;-73.582;2023-07-31T02:29:10;1.43;;;1.33;;
20004;SDS011;69160;45.498;-73.582;2023-07-31T02:31:37;1.77;;;1.57;;
20004;SDS011;69160;45.498;-73.582;2023-07-31T02:34:03;1.53;;;1.40;;
20004;SDS011;69160;45.498;-73.582;2023-07-31T02:36:29;1.83;;;1.30;;
20004;SDS011;69160;45.498;-73.582;2023-07-31T02:38:55;2.00;;;1.70;;
20004;SDS011;69160;45.498;-73.582;2023-07-31T02:41:21;2.30;;;1.70;;
20004;SDS011;69160;45.498;-73.582;2023-07-31T02:43:47;1.70;;;1.60;;
20004;SDS011;69160;45.498;-73.582;2023-07-31T02:46:13;2.37;;;1.90;;
20004;SDS011;69160;45.498;-73.582;2023-07-31T02:48:39;1.43;;;1.33;;
20004;SDS011;69160;45.498;-73.582;2023-07-31T02:51:06;1.87;;;1.67;;
20004;SDS011;69160;45.498;-73.582;2023-07-31T02:53:32;2.77;;;1.80;;
20004;SDS011;69160;45.498;-73.582;2023-07-31T02:55:58;1.87;;;1.47;;
20004;SDS011;69160;45.498;-73.582;2023-07-31T02:58:24;2.00;;;1.70;;
20004;SDS011;69160;45.498;-73.582;2023-07-31T03:00:50;2.63;;;1.83;;
20004;SDS011;69160;45.498;-73.582;2023-07-31T03:03:16;1.37;;;1.23;;
20004;SDS011;69160;45.498;-73.582;2023-07-31T03:05:42;2.13;;;1.70;;
20004;SDS011;69160;45.498;-73.582;2023-07-31T03:08:08;2.23;;;1.40;;
20004;SDS011;69160;45.498;-73.582;2023-07-31T03:10:34;1.60;;;1.50;;
20004;SDS011;69160;45.498;-73.582;2023-07-31T03:13:00;2.00;;;1.80;;
20004;SDS011;69160;45.498;-73.582;2023-07-31T03:15:27;2.07;;;1.77;;
20004;SDS011;69160;45.498;-73.582;2023-07-31T03:17:53;1.67;;;1.53;;
20004;SDS011;69160;45.498;-73.582;2023-07-31T03:20:19;2.13;;;1.40;;
20004;SDS011;69160;45.498;-73.582;2023-07-31T03:22:45;1.60;;;1.40;;
20004;SDS011;69160;45.498;-73.582;2023-07-31T03:25:11;1.90;;;1.70;;
20004;SDS011;69160;45.498;-73.582;2023-07-31T03:27:37;2.23;;;1.30;;
20004;SDS011;69160;45.498;-73.582;2023-07-31T03:30:04;1.93;;;1.73;;
20004;SDS011;69160;45.498;-73.582;2023-07-31T03:32:30;2.43;;;1.50;;
20004;SDS011;69160;45.498;-73.582;2023-07-31T03:34:57;3.60;;;1.50;;
20004;SDS011;69160;45.498;-73.582;2023-07-31T03:37:23;3.23;;;1.50;;
20004;SDS011;69160;45.498;-73.582;2023-07-31T03:39:50;2.53;;;1.97;;
20004;SDS011;69160;45.498;-73.582;2023-07-31T03:42:16;2.70;;;1.47;;
20004;SDS011;69160;45.498;-73.582;2023-07-31T03:44:42;2.97;;;1.60;;
20004;SDS011;69160;45.498;-73.582;2023-07-31T03:47:08;2.60;;;1.73;;
20004;SDS011;69160;45.498;-73.582;2023-07-31T03:49:35;2.40;;;1.80;;
20004;SDS011;69160;45.498;-73.582;2023-07-31T03:52:01;1.33;;;1.23;;
20004;SDS011;69160;45.498;-73.582;2023-07-31T03:54:27;2.33;;;1.80;;
20004;SDS011;69160;45.498;-73.582;2023-07-31T03:56:53;1.83;;;1.67;;
20004;SDS011;69160;45.498;-73.582;2023-07-31T03:59:19;2.47;;;1.60;;
20004;SDS011;69160;45.498;-73.582;2023-07-31T04:01:45;2.10;;;1.87;;
20004;SDS011;69160;45.498;-73.582;2023-07-31T04:04:11;1.23;;;1.13;;
20004;SDS011;69160;45.498;-73.582;2023-07-31T04:06:38;1.80;;;1.70;;
20004;SDS011;69160;45.498;-73.582;2023-07-31T04:09:04;1.40;;;1.30;;
20004;SDS011;69160;45.498;-73.582;2023-07-31T04:11:30;2.47;;;1.70;;
20004;SDS011;69160;45.498;-73.582;2023-07-31T04:13:56;2.27;;;1.60;;
20004;SDS011;69160;45.498;-73.582;2023-07-31T04:16:22;1.60;;;1.50;;
20004;SDS011;69160;45.498;-73.582;2023-07-31T04:18:48;1.47;;;1.37;;
20004;SDS011;69160;45.498;-73.582;2023-07-31T04:21:14;1.60;;;1.47;;
20004;SDS011;69160;45.498;-73.582;2023-07-31T04:23:41;1.73;;;1.50;;
20004;SDS011;69160;45.498;-73.582;2023-07-31T04:26:07;2.97;;;1.77;;
20004;SDS011;69160;45.498;-73.582;2023-07-31T04:28:33;1.90;;;1.53;;
20004;SDS011;69160;45.498;-73.582;2023-07-31T04:30:59;2.13;;;1.57;;
20004;SDS011;69160;45.498;-73.582;2023-07-31T04:33:25;2.50;;;1.70;;
20004;SDS011;69160;45.498;-73.582;2023-07-31T04:35:52;1.60;;;1.50;;
20004;SDS011;69160;45.498;-73.582;2023-07-31T04:38:19;2.13;;;1.77;;
20004;SDS011;69160;45.498;-73.582;2023-07-31T04:40:46;1.63;;;1.30;;
20004;SDS011;69160;45.498;-73.582;2023-07-31T04:43:12;2.00;;;1.57;;
20004;SDS011;69160;45.498;-73.582;2023-07-31T04:45:39;2.30;;;1.33;;
20004;SDS011;69160;45.498;-73.582;2023-07-31T04:48:07;1.43;;;1.23;;
20004;SDS011;69160;45.498;-73.582;2023-07-31T04:50:33;2.23;;;1.43;;
20004;SDS011;69160;45.498;-73.582;2023-07-31T04:52:59;1.23;;;1.13;;
20004;SDS011;69160;45.498;-73.582;2023-07-31T04:55:25;1.40;;;1.30;;
20004;SDS011;69160;45.498;-73.582;2023-07-31T04:57:52;1.30;;;1.20;;
20004;SDS011;69160;45.498;-73.582;2023-07-31T05:00:18;1.43;;;1.23;;
20004;SDS011;69160;45.498;-73.582;2023-07-31T05:02:44;1.43;;;1.20;;
20004;SDS011;69160;45.498;-73.582;2023-07-31T05:05:10;1.60;;;1.50;;
20004;SDS011;69160;45.498;-73.582;2023-07-31T05:07:37;1.90;;;1.70;;
20004;SDS011;69160;45.498;-73.582;2023-07-31T05:10:03;1.80;;;1.50;;
20004;SDS011;69160;45.498;-73.582;2023-07-31T05:12:30;2.10;;;1.40;;
20004;SDS011;69160;45.498;-73.582;2023-07-31T05:14:56;1.40;;;1.30;;
20004;SDS011;69160;45.498;-73.582;2023-07-31T05:17:22;1.60;;;1.50;;
20004;SDS011;69160;45.498;-73.582;2023-07-31T05:19:48;1.40;;;1.30;;
20004;SDS011;69160;45.498;-73.582;2023-07-31T05:22:14;1.90;;;1.33;;
20004;SDS011;69160;45.498;-73.582;2023-07-31T05:24:40;2.00;;;1.27;;
20004;SDS011;69160;45.498;-73.582;2023-07-31T05:27:06;2.17;;;1.77;;
20004;SDS011;69160;45.498;-73.582;2023-07-31T05:29:32;1.23;;;1.13;;
20004;SDS011;69160;45.498;-73.582;2023-07-31T05:31:58;2.33;;;1.87;;
20004;SDS011;69160;45.498;-73.582;2023-07-31T05:34:25;2.17;;;1.27;;
20004;SDS011;69160;45.498;-73.582;2023-07-31T05:36:51;1.50;;;1.40;;
20004;SDS011;69160;45.498;-73.582;2023-07-31T05:39:17;1.40;;;1.30;;
20004;SDS011;69160;45.498;-73.582;2023-07-31T05:41:44;2.30;;;1.43;;
20004;SDS011;69160;45.498;-73.582;2023-07-31T05:44:11;2.00;;;1.40;;
20004;SDS011;69160;45.498;-73.582;2023-07-31T05:46:37;1.47;;;1.37;;
20004;SDS011;69160;45.498;-73.582;2023-07-31T05:49:03;1.70;;;1.10;;
20004;SDS011;69160;45.498;-73.582;2023-07-31T05:51:29;1.33;;;1.07;;
20004;SDS011;69160;45.498;-73.582;2023-07-31T05:53:55;1.83;;;1.40;;
20004;SDS011;69160;45.498;-73.582;2023-07-31T05:56:21;1.30;;;1.20;;
20004;SDS011;69160;45.498;-73.582;2023-07-31T05:58:48;2.20;;;1.40;;
20004;SDS011;69160;45.498;-73.582;2023-07-31T06:01:16;2.03;;;1.60;;
20004;SDS011;69160;45.498;-73.582;2023-07-31T06:03:42;2.20;;;1.40;;
20004;SDS011;69160;45.498;-73.582;2023-07-31T06:06:09;1.63;;;1.43;;
20004;SDS011;69160;45.498;-73.582;2023-07-31T06:08:35;1.43;;;1.30;;
20004;SDS011;69160;45.498;-73.582;2023-07-31T06:11:01;1.40;;;1.20;;
20004;SDS011;69160;45.498;-73.582;2023-07-31T06:13:27;1.40;;;1.30;;
20004;SDS011;69160;45.498;-73.582;2023-07-31T06:15:53;1.83;;;1.50;;
20004;SDS011;69160;45.498;-73.582;2023-07-31T06:18:20;1.40;;;1.20;;
20004;SDS011;69160;45.498;-73.582;2023-07-31T06:20:46;1.40;;;1.20;;
20004;SDS011;69160;45.498;-73.582;2023-07-31T06:23:12;1.77;;;1.50;;
20004;SDS011;69160;45.498;-73.582;2023-07-31T06:25:39;1.87;;;1.40;;
20004;SDS011;69160;45.498;-73.582;2023-07-31T06:28:05;1.97;;;1.30;;
20004;SDS011;69160;45.498;-73.582;2023-07-31T06:30:31;1.50;;;1.40;;
20004;SDS011;69160;45.498;-73.582;2023-07-31T06:32:57;1.67;;;1.57;;
20004;SDS011;69160;45.498;-73.582;2023-07-31T06:35:23;1.80;;;1.40;;
20004;SDS011;69160;45.498;-73.582;2023-07-31T06:37:49;1.70;;;1.20;;
20004;SDS011;69160;45.498;-73.582;2023-07-31T06:40:16;1.17;;;1.07;;
20004;SDS011;69160;45.498;-73.582;2023-07-31T06:42:42;1.77;;;1.20;;
20004;SDS011;69160;45.498;-73.582;2023-07-31T06:45:08;1.47;;;1.23;;
20004;SDS011;69160;45.498;-73.582;2023-07-31T06:47:35;2.00;;;1.50;;
20004;SDS011;69160;45.498;-73.582;2023-07-31T06:50:01;1.70;;;1.20;;
20004;SDS011;69160;45.498;-73.582;2023-07-31T06:52:27;1.77;;;1.43;;
20004;SDS011;69160;45.498;-73.582;2023-07-31T06:55:04;1.50;;;1.30;;
20004;SDS011;69160;45.498;-73.582;2023-07-31T06:57:44;1.47;;;1.37;;
20004;SDS011;69160;45.498;-73.582;2023-07-31T07:00:10;1.80;;;1.40;;
20004;SDS011;69160;45.498;-73.582;2023-07-31T07:02:37;1.60;;;1.33;;
20004;SDS011;69160;45.498;-73.582;2023-07-31T07:05:03;1.30;;;1.20;;
20004;SDS011;69160;45.498;-73.582;2023-07-31T07:07:29;2.20;;;1.30;;
20004;SDS011;69160;45.498;-73.582;2023-07-31T07:09:55;1.57;;;1.43;;
20004;SDS011;69160;45.498;-73.582;2023-07-31T07:12:21;1.67;;;1.40;;
20004;SDS011;69160;45.498;-73.582;2023-07-31T07:14:47;2.20;;;1.60;;
20004;SDS011;69160;45.498;-73.582;2023-07-31T07:17:14;1.53;;;1.37;;
20004;SDS011;69160;45.498;-73.582;2023-07-31T07:19:40;1.77;;;1.50;;
20004;SDS011;69160;45.498;-73.582;2023-07-31T07:22:07;1.53;;;1.43;;
20004;SDS011;69160;45.498;-73.582;2023-07-31T07:24:35;1.80;;;1.43;;
20004;SDS011;69160;45.498;-73.582;2023-07-31T07:27:01;1.87;;;1.67;;
20004;SDS011;69160;45.498;-73.582;2023-07-31T07:29:27;2.03;;;1.57;;
20004;SDS011;69160;45.498;-73.582;2023-07-31T07:31:53;1.53;;;1.40;;
20004;SDS011;69160;45.498;-73.582;2023-07-31T07:34:22;1.80;;;1.40;;
20004;SDS011;69160;45.498;-73.582;2023-07-31T07:36:49;2.03;;;1.47;;
20004;SDS011;69160;45.498;-73.582;2023-07-31T07:39:15;1.40;;;1.30;;
20004;SDS011;69160;45.498;-73.582;2023-07-31T07:41:42;1.77;;;1.57;;
20004;SDS011;69160;45.498;-73.582;2023-07-31T07:44:08;1.90;;;1.53;;
20004;SDS011;69160;45.498;-73.582;2023-07-31T07:46:34;1.40;;;1.30;;
20004;SDS011;69160;45.498;-73.582;2023-07-31T07:49:00;1.87;;;1.60;;
20004;SDS011;69160;45.498;-73.582;2023-07-31T07:51:26;1.40;;;1.20;;
20004;SDS011;69160;45.498;-73.582;2023-07-31T07:53:52;1.73;;;1.37;;
20004;SDS011;69160;45.498;-73.582;2023-07-31T07:56:19;3.00;;;1.00;;
20004;SDS011;69160;45.498;-73.582;2023-07-31T07:58:47;1.70;;;1.23;;
20004;SDS011;69160;45.498;-73.582;2023-07-31T08:01:15;1.70;;;1.30;;
20004;SDS011;69160;45.498;-73.582;2023-07-31T08:03:41;1.83;;;1.27;;
20004;SDS011;69160;45.498;-73.582;2023-07-31T08:06:08;1.40;;;1.20;;
20004;SDS011;69160;45.498;-73.582;2023-07-31T08:08:37;1.43;;;1.33;;
20004;SDS011;69160;45.498;-73.582;2023-07-31T08:11:04;4.63;;;1.63;;
20004;SDS011;69160;45.498;-73.582;2023-07-31T08:13:30;1.40;;;1.30;;
20004;SDS011;69160;45.498;-73.582;2023-07-31T08:15:56;1.80;;;1.70;;
20004;SDS011;69160;45.498;-73.582;2023-07-31T08:18:23;1.30;;;1.20;;
20004;SDS011;69160;45.498;-73.582;2023-07-31T08:20:49;2.30;;;1.53;;
20004;SDS011;69160;45.498;-73.582;2023-07-31T08:23:15;1.60;;;1.30;;
20004;SDS011;69160;45.498;-73.582;2023-07-31T08:25:41;1.80;;;1.47;;
20004;SDS011;69160;45.498;-73.582;2023-07-31T08:28:07;1.67;;;1.50;;
20004;SDS011;69160;45.498;-73.582;2023-07-31T08:30:33;1.50;;;1.17;;
20004;SDS011;69160;45.498;-73.582;2023-07-31T08:32:59;1.90;;;1.33;;
20004;SDS011;69160;45.498;-73.582;2023-07-31T08:35:26;1.63;;;1.33;;
20004;SDS011;69160;45.498;-73.582;2023-07-31T08:37:55;1.43;;;1.20;;
20004;SDS011;69160;45.498;-73.582;2023-07-31T08:40:21;2.77;;;1.50;;
20004;SDS011;69160;45.498;-73.582;2023-07-31T08:42:48;3.10;;;1.60;;
20004;SDS011;69160;45.498;-73.582;2023-07-31T08:45:16;2.20;;;1.67;;
20004;SDS011;69160;45.498;-73.582;2023-07-31T08:47:46;2.17;;;1.50;;
20004;SDS011;69160;45.498;-73.582;2023-07-31T08:50:17;1.10;;;1.00;;
20004;SDS011;69160;45.498;-73.582;2023-07-31T08:52:48;1.17;;;1.03;;
20004;SDS011;69160;45.498;-73.582;2023-07-31T08:55:15;2.00;;;1.37;;
20004;SDS011;69160;45.498;-73.582;2023-07-31T08:57:42;1.50;;;1.30;;
20004;SDS011;69160;45.498;-73.582;2023-07-31T09:00:09;1.33;;;1.23;;
20004;SDS011;69160;45.498;-73.582;2023-07-31T09:05:17;1.77;;;1.50;;
20004;SDS011;69160;45.498;-73.582;2023-07-31T09:07:45;2.20;;;1.50;;
20004;SDS011;69160;45.498;-73.582;2023-07-31T09:10:13;2.43;;;1.40;;
20004;SDS011;69160;45.498;-73.582;2023-07-31T09:12:39;1.40;;;1.20;;
20004;SDS011;69160;45.498;-73.582;2023-07-31T09:15:06;1.20;;;1.10;;
20004;SDS011;69160;45.498;-73.582;2023-07-31T09:17:35;2.00;;;1.60;;
20004;SDS011;69160;45.498;-73.582;2023-07-31T09:20:20;1.30;;;1.20;;
20004;SDS011;69160;45.498;-73.582;2023-07-31T09:22:48;1.50;;;1.40;;
20004;SDS011;69160;45.498;-73.582;2023-07-31T09:25:15;1.30;;;1.20;;
20004;SDS011;69160;45.498;-73.582;2023-07-31T09:27:48;2.50;;;1.40;;
20004;SDS011;69160;45.498;-73.582;2023-07-31T09:30:25;1.43;;;1.33;;
20004;SDS011;69160;45.498;-73.582;2023-07-31T09:33:03;1.57;;;1.47;;
20004;SDS011;69160;45.498;-73.582;2023-07-31T09:35:33;1.80;;;1.43;;
20004;SDS011;69160;45.498;-73.582;2023-07-31T09:38:01;1.70;;;1.40;;
20004;SDS011;69160;45.498;-73.582;2023-07-31T09:40:32;1.43;;;1.33;;
20004;SDS011;69160;45.498;-73.582;2023-07-31T09:43:00;1.27;;;1.17;;
20004;SDS011;69160;45.498;-73.582;2023-07-31T09:45:33;1.57;;;1.40;;
20004;SDS011;69160;45.498;-73.582;2023-07-31T09:48:06;1.30;;;1.20;;
20004;SDS011;69160;45.498;-73.582;2023-07-31T09:50:44;1.30;;;1.20;;
20004;SDS011;69160;45.498;-73.582;2023-07-31T09:53:12;1.40;;;1.30;;
20004;SDS011;69160;45.498;-73.582;2023-07-31T09:55:39;1.27;;;1.17;;
20004;SDS011;69160;45.498;-73.582;2023-07-31T09:58:07;1.77;;;1.20;;
20004;SDS011;69160;45.498;-73.582;2023-07-31T10:00:34;2.13;;;1.30;;
20004;SDS011;69160;45.498;-73.582;2023-07-31T10:03:02;1.20;;;1.10;;
20004;SDS011;69160;45.498;-73.582;2023-07-31T10:05:32;1.43;;;1.27;;
20004;SDS011;69160;45.498;-73.582;2023-07-31T10:08:00;1.93;;;1.40;;
20004;SDS011;69160;45.498;-73.582;2023-07-31T10:10:27;2.10;;;1.50;;
20004;SDS011;69160;45.498;-73.582;2023-07-31T10:12:54;1.30;;;1.10;;
20004;SDS011;69160;45.498;-73.582;2023-07-31T10:15:22;2.03;;;1.40;;
20004;SDS011;69160;45.498;-73.582;2023-07-31T10:17:51;1.40;;;1.30;;
20004;SDS011;69160;45.498;-73.582;2023-07-31T10:20:19;2.13;;;1.67;;
20004;SDS011;69160;45.498;-73.582;2023-07-31T10:22:46;1.30;;;1.13;;
20004;SDS011;69160;45.498;-73.582;2023-07-31T10:25:15;2.10;;;1.83;;
20004;SDS011;69160;45.498;-73.582;2023-07-31T10:27:42;1.40;;;1.23;;
20004;SDS011;69160;45.498;-73.582;2023-07-31T10:30:09;1.57;;;1.47;;
20004;SDS011;69160;45.498;-73.582;2023-07-31T10:32:44;1.23;;;1.10;;
20004;SDS011;69160;45.498;-73.582;2023-07-31T10:35:11;1.80;;;1.47;;
20004;SDS011;69160;45.498;-73.582;2023-07-31T10:40:26;1.20;;;1.10;;
20004;SDS011;69160;45.498;-73.582;2023-07-31T10:42:56;1.40;;;1.30;;
20004;SDS011;69160;45.498;-73.582;2023-07-31T10:45:33;1.50;;;1.40;;
20004;SDS011;69160;45.498;-73.582;2023-07-31T10:48:04;1.43;;;1.33;;
20004;SDS011;69160;45.498;-73.582;2023-07-31T10:50:32;2.10;;;1.63;;
20004;SDS011;69160;45.498;-73.582;2023-07-31T10:53:02;1.30;;;1.20;;
20004;SDS011;69160;45.498;-73.582;2023-07-31T10:55:30;1.10;;;1.00;;
20004;SDS011;69160;45.498;-73.582;2023-07-31T10:58:08;1.30;;;1.13;;
20004;SDS011;69160;45.498;-73.582;2023-07-31T11:00:38;1.90;;;1.60;;
20004;SDS011;69160;45.498;-73.582;2023-07-31T11:03:09;1.40;;;1.30;;
20004;SDS011;69160;45.498;-73.582;2023-07-31T11:05:43;1.90;;;1.30;;
20004;SDS011;69160;45.498;-73.582;2023-07-31T11:10:44;3.50;;;1.50;;
20004;SDS011;69160;45.498;-73.582;2023-07-31T11:13:12;2.03;;;1.40;;
20004;SDS011;69160;45.498;-73.582;2023-07-31T11:15:39;1.53;;;1.43;;
20004;SDS011;69160;45.498;-73.582;2023-07-31T11:18:05;1.77;;;1.47;;
20004;SDS011;69160;45.498;-73.582;2023-07-31T11:20:34;6.43;;;1.77;;
20004;SDS011;69160;45.498;-73.582;2023-07-31T11:23:01;2.83;;;1.40;;
20004;SDS011;69160;45.498;-73.582;2023-07-31T11:25:30;3.33;;;1.43;;
20004;SDS011;69160;45.498;-73.582;2023-07-31T11:28:04;2.10;;;1.20;;
20004;SDS011;69160;45.498;-73.582;2023-07-31T11:30:31;1.80;;;1.37;;
20004;SDS011;69160;45.498;-73.582;2023-07-31T11:32:58;1.33;;;1.20;;
20004;SDS011;69160;45.498;-73.582;2023-07-31T11:35:25;1.40;;;1.30;;
20004;SDS011;69160;45.498;-73.582;2023-07-31T11:37:51;2.47;;;1.67;;
20004;SDS011;69160;45.498;-73.582;2023-07-31T11:40:17;1.33;;;1.23;;
20004;SDS011;69160;45.498;-73.582;2023-07-31T11:42:44;3.63;;;1.70;;
20004;SDS011;69160;45.498;-73.582;2023-07-31T11:45:10;1.70;;;1.60;;
20004;SDS011;69160;45.498;-73.582;2023-07-31T11:47:37;2.10;;;1.70;;
20004;SDS011;69160;45.498;-73.582;2023-07-31T11:50:04;2.70;;;1.40;;
20004;SDS011;69160;45.498;-73.582;2023-07-31T11:52:32;2.93;;;1.43;;
20004;SDS011;69160;45.498;-73.582;2023-07-31T11:55:01;1.60;;;1.50;;
20004;SDS011;69160;45.498;-73.582;2023-07-31T11:57:28;4.73;;;1.60;;
20004;SDS011;69160;45.498;-73.582;2023-07-31T11:59:55;1.77;;;1.50;;
20004;SDS011;69160;45.498;-73.582;2023-07-31T12:02:22;1.97;;;1.40;;
20004;SDS011;69160;45.498;-73.582;2023-07-31T12:04:48;1.70;;;1.60;;
20004;SDS011;69160;45.498;-73.582;2023-07-31T12:07:15;2.17;;;1.50;;
20004;SDS011;69160;45.498;-73.582;2023-07-31T12:09:53;1.60;;;1.40;;
20004;SDS011;69160;45.498;-73.582;2023-07-31T12:12:20;1.57;;;1.47;;
20004;SDS011;69160;45.498;-73.582;2023-07-31T12:14:48;12.43;;;4.50;;
20004;SDS011;69160;45.498;-73.582;2023-07-31T12:17:16;8.40;;;3.33;;
20004;SDS011;69160;45.498;-73.582;2023-07-31T12:19:44;8.93;;;2.57;;
20004;SDS011;69160;45.498;-73.582;2023-07-31T12:22:11;7.70;;;2.50;;
20004;SDS011;69160;45.498;-73.582;2023-07-31T12:24:38;3.80;;;2.13;;
20004;SDS011;69160;45.498;-73.582;2023-07-31T12:27:12;2.87;;;1.60;;
20004;SDS011;69160;45.498;-73.582;2023-07-31T12:29:40;2.60;;;1.63;;
20004;SDS011;69160;45.498;-73.582;2023-07-31T12:32:24;3.30;;;1.53;;
20004;SDS011;69160;45.498;-73.582;2023-07-31T12:34:50;2.90;;;1.77;;
20004;SDS011;69160;45.498;-73.582;2023-07-31T12:37:17;3.10;;;1.50;;
20004;SDS011;69160;45.498;-73.582;2023-07-31T12:39:43;3.10;;;1.80;;
20004;SDS011;69160;45.498;-73.582;2023-07-31T12:42:09;1.70;;;1.60;;
20004;SDS011;69160;45.498;-73.582;2023-07-31T12:44:35;3.13;;;1.93;;
20004;SDS011;69160;45.498;-73.582;2023-07-31T12:47:01;2.50;;;1.67;;
20004;SDS011;69160;45.498;-73.582;2023-07-31T12:49:29;2.83;;;1.67;;
20004;SDS011;69160;45.498;-73.582;2023-07-31T12:51:55;3.20;;;1.70;;
20004;SDS011;69160;45.498;-73.582;2023-07-31T12:54:21;3.03;;;2.00;;
20004;SDS011;69160;45.498;-73.582;2023-07-31T12:56:49;3.90;;;2.23;;
20004;SDS011;69160;45.498;-73.582;2023-07-31T12:59:16;5.33;;;2.27;;
20004;SDS011;69160;45.498;-73.582;2023-07-31T13:01:42;4.03;;;2.00;;
20004;SDS011;69160;45.498;-73.582;2023-07-31T13:04:08;7.03;;;2.20;;
20004;SDS011;69160;45.498;-73.582;2023-07-31T13:06:34;5.33;;;2.60;;
20004;SDS011;69160;45.498;-73.582;2023-07-31T13:09:00;2.80;;;1.90;;
20004;SDS011;69160;45.498;-73.582;2023-07-31T13:11:27;3.93;;;2.00;;
20004;SDS011;69160;45.498;-73.582;2023-07-31T13:13:53;2.90;;;2.17;;
20004;SDS011;69160;45.498;-73.582;2023-07-31T13:16:19;4.13;;;2.00;;
20004;SDS011;69160;45.498;-73.582;2023-07-31T13:18:45;5.13;;;2.80;;
20004;SDS011;69160;45.498;-73.582;2023-07-31T13:21:11;5.20;;;2.30;;
20004;SDS011;69160;45.498;-73.582;2023-07-31T13:23:37;3.10;;;2.00;;
20004;SDS011;69160;45.498;-73.582;2023-07-31T13:26:03;3.27;;;2.10;;
20004;SDS011;69160;45.498;-73.582;2023-07-31T13:28:29;7.03;;;2.03;;
20004;SDS011;69160;45.498;-73.582;2023-07-31T13:30:55;3.90;;;2.50;;
20004;SDS011;69160;45.498;-73.582;2023-07-31T13:33:22;5.17;;;2.57;;
20004;SDS011;69160;45.498;-73.582;2023-07-31T13:35:48;3.03;;;2.40;;
20004;SDS011;69160;45.498;-73.582;2023-07-31T13:38:15;6.63;;;2.80;;
20004;SDS011;69160;45.498;-73.582;2023-07-31T13:40:41;2.47;;;2.10;;
20004;SDS011;69160;45.498;-73.582;2023-07-31T13:43:07;20.23;;;4.67;;
20004;SDS011;69160;45.498;-73.582;2023-07-31T13:45:33;13.83;;;4.20;;
20004;SDS011;69160;45.498;-73.582;2023-07-31T13:48:00;8.63;;;3.27;;
20004;SDS011;69160;45.498;-73.582;2023-07-31T13:50:26;4.40;;;2.40;;
20004;SDS011;69160;45.498;-73.582;2023-07-31T13:52:52;2.87;;;2.27;;
20004;SDS011;69160;45.498;-73.582;2023-07-31T13:55:18;3.37;;;2.23;;
20004;SDS011;69160;45.498;-73.582;2023-07-31T13:57:45;4.60;;;2.87;;
20004;SDS011;69160;45.498;-73.582;2023-07-31T14:00:11;7.67;;;2.60;;
20004;SDS011;69160;45.498;-73.582;2023-07-31T14:02:38;2.73;;;2.00;;
20004;SDS011;69160;45.498;-73.582;2023-07-31T14:05:04;2.97;;;2.30;;
20004;SDS011;69160;45.498;-73.582;2023-07-31T14:07:31;5.57;;;2.60;;
20004;SDS011;69160;45.498;-73.582;2023-07-31T14:09:58;3.10;;;2.50;;
20004;SDS011;69160;45.498;-73.582;2023-07-31T14:12:24;7.53;;;2.70;;
20004;SDS011;69160;45.498;-73.582;2023-07-31T14:14:50;5.20;;;2.70;;
20004;SDS011;69160;45.498;-73.582;2023-07-31T14:17:16;4.13;;;2.80;;
20004;SDS011;69160;45.498;-73.582;2023-07-31T14:19:42;3.50;;;2.40;;
20004;SDS011;69160;45.498;-73.582;2023-07-31T14:22:08;4.80;;;2.20;;
20004;SDS011;69160;45.498;-73.582;2023-07-31T14:24:34;4.27;;;2.60;;
20004;SDS011;69160;45.498;-73.582;2023-07-31T14:27:01;2.73;;;2.37;;
20004;SDS011;69160;45.498;-73.582;2023-07-31T14:29:27;2.80;;;2.50;;
20004;SDS011;69160;45.498;-73.582;2023-07-31T14:31:53;3.57;;;2.93;;
20004;SDS011;69160;45.498;-73.582;2023-07-31T14:34:20;5.73;;;2.70;;